Rockwall, Texas
Current Conditions -  °F | °C
As of 7:15 PM on Sunday 23 Nov 2014 (Local Time) from KF46 Reporting Station
Clear Clear  
Wind Chill: 60°   Ceiling: Unl
Heat Index: 60°   Visibility: 10mi
Dew Point: 44°   Wind: 21mph
Humidity: 54%   Direction: 300°WNW
Pressure: 29.59"   Gusts: 37mph
Location:  32.93°N, 96.46°W
Report Text: KF46 240115Z AUTO 30018G32KT 10SM CLR 16/07 A2959 RMK AO2 T01570065
Loading
Personal Weather Stations






























Interactive Weather Map New forecast layout! Learn more

10-Day Weather Forecast

Advertisements
Track Severe Weather on mobile